Kona International At Keahole, HI

2:23 AM HST on May 24, 2015 (GMT -1000)
Bradshaw Army Air Field | | Change Station
CLOSE
Current Station
Airport
Location: Bradshaw AFB,
Elevation: 6191 ft
Nearby Weather Stations

Elev 6191 ft 19.76 °N, 155.55 °W | Updated 27 minutes ago

Clear
Clear
45 °F
Feels Like 45 °F
N
2
Wind Variable Wind from North

Today
High -- | Low -- °F
--% Chance of Precip.
Yesterday
High -- | Low -- °F
Precip. -- in
5:45 AM 6:56 PM
Waxing Crescent, 38% visible
Pressure 30.00 in
Visibility 8.0 miles
Clouds Clear
Dew Point 41 °F
Humidity 87%
Rainfall 0.00 in
Snow Depth Not available.
UV 0 out of 12
Pollen Not available.
Air Quality Not available.
Flu Activity Local Activity
METAR PHSF 241156Z AUTO 36002KT 8SM CLR 07/05 A3031 RMK AO2 SLP159 T00720051 10133 20071 58011 $

More Conditions Fewer Conditions

Pressure 30.00 in
Visibility 8.0 miles
Clouds Clear
Dew Point 41 °F
Humidity 87%
Rainfall 0.00 in
Snow Depth Not available.
UV 0 out of 12
Pollen Not available.
Air Quality Not available.
Flu Activity Local Activity
METAR PHSF 241156Z AUTO 36002KT 8SM CLR 07/05 A3031 RMK AO2 SLP159 T00720051 10133 20071 58011 $

More Conditions Fewer Conditions

10-Day Weather Forecast

Almanac

Astronomy

May. 24, 2015 Rise Set
Actual Time
Civil Twilight
Nautical Twilight
Astronomical Twilight
Moon
Length of Visible Light
Length of Day
Tomorrow will be .
, % of the Moon is Illuminated

Today's Extremes

State Highs State Lows

Community

WunderPhotos

Upload Photos

1,823,724 photos uploaded!

WunderBlogs® & News

Nearby

Air Quality

  Air Quality AQ Index Pollutant
Not available.

Snow Depth

Station Depth Elevation

Earthquake Activity

City Distance Mag. Time & Date
Minimum magnitude displayed is 2.5.

Coastal Water Temperatures

Place Temperature

Stations

Nearby Weather Stations

Station Location Temp. Windchill Dew Point Humidity Wind Precip. Elev Updated Type